sensor_id;sensor_type;location;lat;lon;timestamp;temperature;humidity
25550;DHT22;13444;50.562;7.262;2023-04-03T00:01:23;5.90;99.90
25550;DHT22;13444;50.562;7.262;2023-04-03T00:03:49;5.90;99.90
25550;DHT22;13444;50.562;7.262;2023-04-03T00:06:15;5.90;99.90
25550;DHT22;13444;50.562;7.262;2023-04-03T00:08:41;5.90;99.90
25550;DHT22;13444;50.562;7.262;2023-04-03T00:11:07;6.00;99.90
25550;DHT22;13444;50.562;7.262;2023-04-03T00:13:33;6.00;99.90
25550;DHT22;13444;50.562;7.262;2023-04-03T00:15:59;6.10;99.90
25550;DHT22;13444;50.562;7.262;2023-04-03T00:18:25;6.00;99.90
25550;DHT22;13444;50.562;7.262;2023-04-03T00:20:51;6.00;99.90
25550;DHT22;13444;50.562;7.262;2023-04-03T00:23:16;6.00;99.90
25550;DHT22;13444;50.562;7.262;2023-04-03T00:25:42;6.00;99.90
25550;DHT22;13444;50.562;7.262;2023-04-03T00:28:09;6.00;99.90
25550;DHT22;13444;50.562;7.262;2023-04-03T00:30:34;6.00;99.90
25550;DHT22;13444;50.562;7.262;2023-04-03T00:33:00;6.00;99.90
25550;DHT22;13444;50.562;7.262;2023-04-03T00:35:27;6.00;99.90
25550;DHT22;13444;50.562;7.262;2023-04-03T00:37:54;5.90;99.90
25550;DHT22;13444;50.562;7.262;2023-04-03T00:40:21;5.90;99.90
25550;DHT22;13444;50.562;7.262;2023-04-03T00:42:49;5.90;99.90
25550;DHT22;13444;50.562;7.262;2023-04-03T00:45:29;5.90;99.90
25550;DHT22;13444;50.562;7.262;2023-04-03T00:47:56;5.90;99.90
25550;DHT22;13444;50.562;7.262;2023-04-03T00:50:22;5.90;99.90
25550;DHT22;13444;50.562;7.262;2023-04-03T00:52:48;5.80;99.90
25550;DHT22;13444;50.562;7.262;2023-04-03T00:55:15;5.90;99.90
25550;DHT22;13444;50.562;7.262;2023-04-03T00:57:42;5.80;99.90
25550;DHT22;13444;50.562;7.262;2023-04-03T01:00:11;5.80;99.90
25550;DHT22;13444;50.562;7.262;2023-04-03T01:02:37;5.90;99.90
25550;DHT22;13444;50.562;7.262;2023-04-03T01:05:06;5.80;99.90
25550;DHT22;13444;50.562;7.262;2023-04-03T01:07:32;5.80;99.90
25550;DHT22;13444;50.562;7.262;2023-04-03T01:10:02;5.80;99.90
25550;DHT22;13444;50.562;7.262;2023-04-03T01:12:38;5.80;99.90
25550;DHT22;13444;50.562;7.262;2023-04-03T01:15:14;5.80;99.90
25550;DHT22;13444;50.562;7.262;2023-04-03T01:17:43;5.70;99.90
25550;DHT22;13444;50.562;7.262;2023-04-03T01:20:21;5.70;99.90
25550;DHT22;13444;50.562;7.262;2023-04-03T01:25:35;5.70;99.90
25550;DHT22;13444;50.562;7.262;2023-04-03T01:28:02;5.70;99.90
25550;DHT22;13444;50.562;7.262;2023-04-03T01:30:31;5.70;99.90
25550;DHT22;13444;50.562;7.262;2023-04-03T01:32:57;5.70;99.90
25550;DHT22;13444;50.562;7.262;2023-04-03T01:35:23;5.70;99.90
25550;DHT22;13444;50.562;7.262;2023-04-03T01:37:48;5.70;99.90
25550;DHT22;13444;50.562;7.262;2023-04-03T01:40:14;5.70;99.90
25550;DHT22;13444;50.562;7.262;2023-04-03T01:42:40;5.70;99.90
25550;DHT22;13444;50.562;7.262;2023-04-03T01:45:05;5.70;99.90
25550;DHT22;13444;50.562;7.262;2023-04-03T01:47:31;5.70;99.90
25550;DHT22;13444;50.562;7.262;2023-04-03T01:49:57;5.70;99.90
25550;DHT22;13444;50.562;7.262;2023-04-03T01:52:22;5.70;99.90
25550;DHT22;13444;50.562;7.262;2023-04-03T01:54:48;5.60;99.90
25550;DHT22;13444;50.562;7.262;2023-04-03T01:57:13;5.60;99.90
25550;DHT22;13444;50.562;7.262;2023-04-03T01:59:40;5.60;99.90
25550;DHT22;13444;50.562;7.262;2023-04-03T02:02:06;5.60;99.90
25550;DHT22;13444;50.562;7.262;2023-04-03T02:04:32;5.60;99.90
25550;DHT22;13444;50.562;7.262;2023-04-03T02:06:58;5.50;99.90
25550;DHT22;13444;50.562;7.262;2023-04-03T02:09:23;5.50;99.90
25550;DHT22;13444;50.562;7.262;2023-04-03T02:11:49;5.50;99.90
25550;DHT22;13444;50.562;7.262;2023-04-03T02:14:15;5.60;99.90
25550;DHT22;13444;50.562;7.262;2023-04-03T02:16:40;5.50;99.90
25550;DHT22;13444;50.562;7.262;2023-04-03T02:19:06;5.50;99.90
25550;DHT22;13444;50.562;7.262;2023-04-03T02:21:32;5.50;99.90
25550;DHT22;13444;50.562;7.262;2023-04-03T02:23:57;5.50;99.90
25550;DHT22;13444;50.562;7.262;2023-04-03T02:26:23;5.50;99.90
25550;DHT22;13444;50.562;7.262;2023-04-03T02:28:48;5.50;99.90
25550;DHT22;13444;50.562;7.262;2023-04-03T02:31:16;5.50;99.90
25550;DHT22;13444;50.562;7.262;2023-04-03T02:33:42;5.50;99.90
25550;DHT22;13444;50.562;7.262;2023-04-03T02:36:08;5.50;99.90
25550;DHT22;13444;50.562;7.262;2023-04-03T02:38:34;5.40;99.90
25550;DHT22;13444;50.562;7.262;2023-04-03T02:41:05;5.40;99.90
25550;DHT22;13444;50.562;7.262;2023-04-03T02:43:31;5.40;99.90
25550;DHT22;13444;50.562;7.262;2023-04-03T02:45:57;5.40;99.90
25550;DHT22;13444;50.562;7.262;2023-04-03T02:48:23;5.40;99.90
25550;DHT22;13444;50.562;7.262;2023-04-03T02:50:49;5.40;99.90
25550;DHT22;13444;50.562;7.262;2023-04-03T02:53:14;5.40;99.90
25550;DHT22;13444;50.562;7.262;2023-04-03T02:55:41;5.40;99.90
25550;DHT22;13444;50.562;7.262;2023-04-03T02:58:06;5.40;99.90
25550;DHT22;13444;50.562;7.262;2023-04-03T03:00:32;5.40;99.90
25550;DHT22;13444;50.562;7.262;2023-04-03T03:02:58;5.40;99.90
25550;DHT22;13444;50.562;7.262;2023-04-03T03:05:24;5.40;99.90
25550;DHT22;13444;50.562;7.262;2023-04-03T03:07:49;5.40;99.90
25550;DHT22;13444;50.562;7.262;2023-04-03T03:10:15;5.40;99.90
25550;DHT22;13444;50.562;7.262;2023-04-03T03:12:40;5.40;99.90
25550;DHT22;13444;50.562;7.262;2023-04-03T03:15:07;5.30;99.90
25550;DHT22;13444;50.562;7.262;2023-04-03T03:17:32;5.30;99.90
25550;DHT22;13444;50.562;7.262;2023-04-03T03:19:58;5.40;99.90
25550;DHT22;13444;50.562;7.262;2023-04-03T03:22:24;5.40;99.90
25550;DHT22;13444;50.562;7.262;2023-04-03T03:24:50;5.40;99.90
25550;DHT22;13444;50.562;7.262;2023-04-03T03:27:15;5.30;99.90
25550;DHT22;13444;50.562;7.262;2023-04-03T03:29:41;5.30;99.90
25550;DHT22;13444;50.562;7.262;2023-04-03T03:32:07;5.30;99.90
25550;DHT22;13444;50.562;7.262;2023-04-03T03:34:33;5.20;99.90
25550;DHT22;13444;50.562;7.262;2023-04-03T03:36:58;5.30;99.90
25550;DHT22;13444;50.562;7.262;2023-04-03T03:39:24;5.30;99.90
25550;DHT22;13444;50.562;7.262;2023-04-03T03:41:50;5.30;99.90
25550;DHT22;13444;50.562;7.262;2023-04-03T03:44:15;5.20;99.90
25550;DHT22;13444;50.562;7.262;2023-04-03T03:46:41;5.20;99.90
25550;DHT22;13444;50.562;7.262;2023-04-03T03:49:06;5.10;99.90
25550;DHT22;13444;50.562;7.262;2023-04-03T03:51:32;5.10;99.90
25550;DHT22;13444;50.562;7.262;2023-04-03T03:53:57;5.10;99.90
25550;DHT22;13444;50.562;7.262;2023-04-03T03:56:23;5.10;99.90
25550;DHT22;13444;50.562;7.262;2023-04-03T03:58:49;5.00;99.90
25550;DHT22;13444;50.562;7.262;2023-04-03T04:01:15;5.00;99.90
25550;DHT22;13444;50.562;7.262;2023-04-03T04:03:42;4.90;99.90
25550;DHT22;13444;50.562;7.262;2023-04-03T04:06:07;4.90;99.90
25550;DHT22;13444;50.562;7.262;2023-04-03T04:08:33;4.80;99.90
25550;DHT22;13444;50.562;7.262;2023-04-03T04:10:58;4.80;99.90
25550;DHT22;13444;50.562;7.262;2023-04-03T04:13:24;4.70;99.90
25550;DHT22;13444;50.562;7.262;2023-04-03T04:15:50;4.70;99.90
25550;DHT22;13444;50.562;7.262;2023-04-03T04:18:15;4.60;99.90
25550;DHT22;13444;50.562;7.262;2023-04-03T04:20:41;4.60;99.90
25550;DHT22;13444;50.562;7.262;2023-04-03T04:23:06;4.60;99.90
25550;DHT22;13444;50.562;7.262;2023-04-03T04:25:32;4.50;99.90
25550;DHT22;13444;50.562;7.262;2023-04-03T04:27:58;4.50;99.90
25550;DHT22;13444;50.562;7.262;2023-04-03T04:30:23;4.40;99.90
25550;DHT22;13444;50.562;7.262;2023-04-03T04:32:49;4.40;99.90
25550;DHT22;13444;50.562;7.262;2023-04-03T04:35:15;4.40;99.90
25550;DHT22;13444;50.562;7.262;2023-04-03T04:37:40;4.30;99.90
25550;DHT22;13444;50.562;7.262;2023-04-03T04:40:07;4.20;99.90
25550;DHT22;13444;50.562;7.262;2023-04-03T04:42:32;4.20;99.90
25550;DHT22;13444;50.562;7.262;2023-04-03T04:44:58;4.20;99.90
25550;DHT22;13444;50.562;7.262;2023-04-03T04:47:23;4.10;99.90
25550;DHT22;13444;50.562;7.262;2023-04-03T04:49:49;4.10;99.90
25550;DHT22;13444;50.562;7.262;2023-04-03T04:52:15;4.10;99.90
25550;DHT22;13444;50.562;7.262;2023-04-03T04:54:41;4.00;99.90
25550;DHT22;13444;50.562;7.262;2023-04-03T04:57:06;4.00;99.90
25550;DHT22;13444;50.562;7.262;2023-04-03T04:59:32;3.90;99.90
25550;DHT22;13444;50.562;7.262;2023-04-03T05:01:58;3.90;99.90
25550;DHT22;13444;50.562;7.262;2023-04-03T05:04:24;3.80;99.90
25550;DHT22;13444;50.562;7.262;2023-04-03T05:06:49;3.80;99.90
25550;DHT22;13444;50.562;7.262;2023-04-03T05:09:15;3.80;99.90
25550;DHT22;13444;50.562;7.262;2023-04-03T05:11:40;3.70;99.90
25550;DHT22;13444;50.562;7.262;2023-04-03T05:14:06;3.70;99.90
25550;DHT22;13444;50.562;7.262;2023-04-03T05:16:32;3.80;99.90
25550;DHT22;13444;50.562;7.262;2023-04-03T05:18:58;3.80;99.90
25550;DHT22;13444;50.562;7.262;2023-04-03T05:21:23;3.70;99.90
25550;DHT22;13444;50.562;7.262;2023-04-03T05:23:51;3.70;99.90
25550;DHT22;13444;50.562;7.262;2023-04-03T05:26:17;3.70;99.90
25550;DHT22;13444;50.562;7.262;2023-04-03T05:28:43;3.60;99.90
25550;DHT22;13444;50.562;7.262;2023-04-03T05:31:08;3.60;99.90
25550;DHT22;13444;50.562;7.262;2023-04-03T05:33:34;3.60;99.90
25550;DHT22;13444;50.562;7.262;2023-04-03T05:36:04;3.60;99.90
25550;DHT22;13444;50.562;7.262;2023-04-03T05:38:30;3.60;99.90
25550;DHT22;13444;50.562;7.262;2023-04-03T05:40:56;3.60;99.90
25550;DHT22;13444;50.562;7.262;2023-04-03T05:43:21;3.60;99.90
25550;DHT22;13444;50.562;7.262;2023-04-03T05:45:47;3.60;99.90
25550;DHT22;13444;50.562;7.262;2023-04-03T05:48:13;3.60;99.90
25550;DHT22;13444;50.562;7.262;2023-04-03T05:50:38;3.70;99.90
25550;DHT22;13444;50.562;7.262;2023-04-03T05:53:07;3.70;99.90
25550;DHT22;13444;50.562;7.262;2023-04-03T05:55:39;3.70;99.90
25550;DHT22;13444;50.562;7.262;2023-04-03T05:58:05;3.80;99.90
25550;DHT22;13444;50.562;7.262;2023-04-03T06:00:30;3.80;99.90
25550;DHT22;13444;50.562;7.262;2023-04-03T06:02:56;3.80;99.90
25550;DHT22;13444;50.562;7.262;2023-04-03T06:05:21;3.90;99.90
25550;DHT22;13444;50.562;7.262;2023-04-03T06:07:50;3.90;99.90
25550;DHT22;13444;50.562;7.262;2023-04-03T06:10:16;4.00;99.90
25550;DHT22;13444;50.562;7.262;2023-04-03T06:12:41;4.10;99.90
25550;DHT22;13444;50.562;7.262;2023-04-03T06:15:07;4.00;99.90
25550;DHT22;13444;50.562;7.262;2023-04-03T06:17:35;4.10;99.90
25550;DHT22;13444;50.562;7.262;2023-04-03T06:20:01;4.10;99.90
25550;DHT22;13444;50.562;7.262;2023-04-03T06:22:28;4.10;99.90
25550;DHT22;13444;50.562;7.262;2023-04-03T06:24:55;4.20;99.90
25550;DHT22;13444;50.562;7.262;2023-04-03T06:27:21;4.30;99.90
25550;DHT22;13444;50.562;7.262;2023-04-03T06:29:47;4.40;99.90
25550;DHT22;13444;50.562;7.262;2023-04-03T06:32:14;4.40;99.90
25550;DHT22;13444;50.562;7.262;2023-04-03T06:34:39;4.60;99.90
25550;DHT22;13444;50.562;7.262;2023-04-03T06:37:05;4.70;99.90
25550;DHT22;13444;50.562;7.262;2023-04-03T06:39:31;4.70;99.90
25550;DHT22;13444;50.562;7.262;2023-04-03T06:41:57;4.90;99.90
25550;DHT22;13444;50.562;7.262;2023-04-03T06:44:23;4.90;99.90
25550;DHT22;13444;50.562;7.262;2023-04-03T06:46:48;5.00;99.90
25550;DHT22;13444;50.562;7.262;2023-04-03T06:49:14;5.10;99.90
25550;DHT22;13444;50.562;7.262;2023-04-03T06:51:40;5.10;99.90
25550;DHT22;13444;50.562;7.262;2023-04-03T06:54:06;5.20;99.90
25550;DHT22;13444;50.562;7.262;2023-04-03T06:56:33;5.30;99.90
25550;DHT22;13444;50.562;7.262;2023-04-03T06:58:58;5.30;99.90
25550;DHT22;13444;50.562;7.262;2023-04-03T07:01:27;5.40;99.90
25550;DHT22;13444;50.562;7.262;2023-04-03T07:03:53;5.50;99.90
25550;DHT22;13444;50.562;7.262;2023-04-03T07:06:19;5.60;99.90
25550;DHT22;13444;50.562;7.262;2023-04-03T07:08:45;5.60;99.90
25550;DHT22;13444;50.562;7.262;2023-04-03T07:11:12;5.70;99.90
25550;DHT22;13444;50.562;7.262;2023-04-03T07:13:38;5.90;99.90
25550;DHT22;13444;50.562;7.262;2023-04-03T07:16:04;6.00;99.90
25550;DHT22;13444;50.562;7.262;2023-04-03T07:18:32;6.20;99.90
25550;DHT22;13444;50.562;7.262;2023-04-03T07:20:58;6.30;99.90
25550;DHT22;13444;50.562;7.262;2023-04-03T07:23:24;6.30;99.90
25550;DHT22;13444;50.562;7.262;2023-04-03T07:25:50;6.40;99.90
25550;DHT22;13444;50.562;7.262;2023-04-03T07:28:17;6.40;99.90
25550;DHT22;13444;50.562;7.262;2023-04-03T07:30:44;6.50;99.90
25550;DHT22;13444;50.562;7.262;2023-04-03T07:33:11;6.60;99.90
25550;DHT22;13444;50.562;7.262;2023-04-03T07:35:38;6.80;99.90
25550;DHT22;13444;50.562;7.262;2023-04-03T07:38:04;6.90;99.90
25550;DHT22;13444;50.562;7.262;2023-04-03T07:40:30;7.00;99.90
25550;DHT22;13444;50.562;7.262;2023-04-03T07:42:56;7.20;99.90
25550;DHT22;13444;50.562;7.262;2023-04-03T07:45:22;7.30;99.90
25550;DHT22;13444;50.562;7.262;2023-04-03T07:47:48;7.50;99.90
25550;DHT22;13444;50.562;7.262;2023-04-03T07:50:14;7.80;99.90
25550;DHT22;13444;50.562;7.262;2023-04-03T07:52:39;8.10;99.90
25550;DHT22;13444;50.562;7.262;2023-04-03T07:55:06;8.50;99.90
25550;DHT22;13444;50.562;7.262;2023-04-03T07:57:31;8.80;99.90
25550;DHT22;13444;50.562;7.262;2023-04-03T07:59:57;9.10;99.90
25550;DHT22;13444;50.562;7.262;2023-04-03T08:02:22;9.40;99.90
25550;DHT22;13444;50.562;7.262;2023-04-03T08:04:48;9.80;99.90
25550;DHT22;13444;50.562;7.262;2023-04-03T08:07:13;9.90;99.90
25550;DHT22;13444;50.562;7.262;2023-04-03T08:09:40;10.10;99.90
25550;DHT22;13444;50.562;7.262;2023-04-03T08:12:05;10.40;99.90
25550;DHT22;13444;50.562;7.262;2023-04-03T08:14:32;10.50;99.90
25550;DHT22;13444;50.562;7.262;2023-04-03T08:17:00;10.80;99.90
25550;DHT22;13444;50.562;7.262;2023-04-03T08:19:26;11.10;99.90
25550;DHT22;13444;50.562;7.262;2023-04-03T08:21:52;11.40;99.90
25550;DHT22;13444;50.562;7.262;2023-04-03T08:24:17;11.80;99.90
25550;DHT22;13444;50.562;7.262;2023-04-03T08:26:43;12.10;99.90
25550;DHT22;13444;50.562;7.262;2023-04-03T08:29:08;12.20;99.90
25550;DHT22;13444;50.562;7.262;2023-04-03T08:31:34;12.20;99.90
25550;DHT22;13444;50.562;7.262;2023-04-03T08:34:00;12.00;99.90
25550;DHT22;13444;50.562;7.262;2023-04-03T08:36:28;11.80;99.90
25550;DHT22;13444;50.562;7.262;2023-04-03T08:38:54;12.10;99.90
25550;DHT22;13444;50.562;7.262;2023-04-03T08:41:39;12.20;99.90
25550;DHT22;13444;50.562;7.262;2023-04-03T08:44:20;12.40;99.90
25550;DHT22;13444;50.562;7.262;2023-04-03T08:49:35;12.80;99.90
25550;DHT22;13444;50.562;7.262;2023-04-03T08:52:10;12.90;99.90
25550;DHT22;13444;50.562;7.262;2023-04-03T08:54:57;12.90;99.90
25550;DHT22;13444;50.562;7.262;2023-04-03T08:57:35;13.10;99.90
25550;DHT22;13444;50.562;7.262;2023-04-03T09:03:21;13.30;99.90
25550;DHT22;13444;50.562;7.262;2023-04-03T09:08:40;13.20;99.90
25550;DHT22;13444;50.562;7.262;2023-04-03T09:14:15;12.80;99.90
25550;DHT22;13444;50.562;7.262;2023-04-03T09:16:59;13.10;99.90
25550;DHT22;13444;50.562;7.262;2023-04-03T09:19:54;13.10;99.90
25550;DHT22;13444;50.562;7.262;2023-04-03T09:22:27;13.10;99.90
25550;DHT22;13444;50.562;7.262;2023-04-03T09:27:26;13.00;99.90
25550;DHT22;13444;50.562;7.262;2023-04-03T09:29:54;13.00;99.90
25550;DHT22;13444;50.562;7.262;2023-04-03T09:32:29;13.00;99.90
25550;DHT22;13444;50.562;7.262;2023-04-03T09:34:59;12.80;99.90
25550;DHT22;13444;50.562;7.262;2023-04-03T09:37:44;13.10;99.90
25550;DHT22;13444;50.562;7.262;2023-04-03T09:42:52;13.80;99.90
25550;DHT22;13444;50.562;7.262;2023-04-03T09:45:24;14.00;99.90
25550;DHT22;13444;50.562;7.262;2023-04-03T09:50:54;14.10;99.90
25550;DHT22;13444;50.562;7.262;2023-04-03T09:53:42;14.10;99.90
25550;DHT22;13444;50.562;7.262;2023-04-03T09:56:23;14.10;99.90
25550;DHT22;13444;50.562;7.262;2023-04-03T09:59:14;14.20;99.90
25550;DHT22;13444;50.562;7.262;2023-04-03T10:01:46;14.30;99.90
25550;DHT22;13444;50.562;7.262;2023-04-03T10:04:22;14.00;99.90
25550;DHT22;13444;50.562;7.262;2023-04-03T10:06:50;13.80;99.90
25550;DHT22;13444;50.562;7.262;2023-04-03T10:12:11;13.60;99.90
25550;DHT22;13444;50.562;7.262;2023-04-03T10:14:58;13.60;99.90
25550;DHT22;13444;50.562;7.262;2023-04-03T10:20:31;14.00;99.90
25550;DHT22;13444;50.562;7.262;2023-04-03T10:23:15;13.90;99.90
25550;DHT22;13444;50.562;7.262;2023-04-03T10:31:16;14.30;99.90
25550;DHT22;13444;50.562;7.262;2023-04-03T10:34:17;14.30;99.90
25550;DHT22;13444;50.562;7.262;2023-04-03T10:42:42;14.90;99.90
25550;DHT22;13444;50.562;7.262;2023-04-03T10:45:28;15.10;99.90
25550;DHT22;13444;50.562;7.262;2023-04-03T10:51:37;14.30;99.90
25550;DHT22;13444;50.562;7.262;2023-04-03T10:54:11;14.60;99.90
25550;DHT22;13444;50.562;7.262;2023-04-03T10:56:51;15.00;99.90
25550;DHT22;13444;50.562;7.262;2023-04-03T11:02:24;15.00;99.90
25550;DHT22;13444;50.562;7.262;2023-04-03T11:07:47;14.90;99.30
25550;DHT22;13444;50.562;7.262;2023-04-03T11:13:11;14.70;99.40
25550;DHT22;13444;50.562;7.262;2023-04-03T11:15:38;14.90;99.90
25550;DHT22;13444;50.562;7.262;2023-04-03T11:18:09;14.90;99.00
25550;DHT22;13444;50.562;7.262;2023-04-03T11:20:37;14.80;98.80
25550;DHT22;13444;50.562;7.262;2023-04-03T11:25:50;14.60;97.00
25550;DHT22;13444;50.562;7.262;2023-04-03T11:28:17;14.40;97.50
25550;DHT22;13444;50.562;7.262;2023-04-03T11:30:55;14.50;96.90
25550;DHT22;13444;50.562;7.262;2023-04-03T11:36:25;14.70;95.80
25550;DHT22;13444;50.562;7.262;2023-04-03T11:38:57;15.00;93.80
25550;DHT22;13444;50.562;7.262;2023-04-03T11:41:33;15.20;96.10
25550;DHT22;13444;50.562;7.262;2023-04-03T11:44:05;15.40;94.10
25550;DHT22;13444;50.562;7.262;2023-04-03T11:46:57;15.80;94.90
25550;DHT22;13444;50.562;7.262;2023-04-03T12:32:26;14.30;93.50
25550;DHT22;13444;50.562;7.262;2023-04-03T12:35:34;14.50;92.70
25550;DHT22;13444;50.562;7.262;2023-04-03T12:41:23;14.50;92.60
25550;DHT22;13444;50.562;7.262;2023-04-03T12:44:18;14.60;92.00
25550;DHT22;13444;50.562;7.262;2023-04-03T12:46:49;14.10;90.40
25550;DHT22;13444;50.562;7.262;2023-04-03T12:49:42;13.90;90.50
25550;DHT22;13444;50.562;7.262;2023-04-03T12:52:25;14.00;92.40
25550;DHT22;13444;50.562;7.262;2023-04-03T12:54:54;14.20;91.90
25550;DHT22;13444;50.562;7.262;2023-04-03T12:57:25;14.20;91.70
25550;DHT22;13444;50.562;7.262;2023-04-03T12:59:51;13.80;91.50
25550;DHT22;13444;50.562;7.262;2023-04-03T13:02:29;13.70;93.50
25550;DHT22;13444;50.562;7.262;2023-04-03T13:05:04;13.60;93.00
25550;DHT22;13444;50.562;7.262;2023-04-03T13:07:34;13.10;92.90
25550;DHT22;13444;50.562;7.262;2023-04-03T13:10:16;13.10;94.90
25550;DHT22;13444;50.562;7.262;2023-04-03T13:13:09;13.20;93.90
25550;DHT22;13444;50.562;7.262;2023-04-03T13:15:46;13.20;93.80
25550;DHT22;13444;50.562;7.262;2023-04-03T13:18:32;12.80;94.70
25550;DHT22;13444;50.562;7.262;2023-04-03T13:23:40;12.50;95.00
25550;DHT22;13444;50.562;7.262;2023-04-03T13:26:07;12.40;95.30
25550;DHT22;13444;50.562;7.262;2023-04-03T13:28:34;12.30;95.60
25550;DHT22;13444;50.562;7.262;2023-04-03T13:33:54;12.10;94.10
25550;DHT22;13444;50.562;7.262;2023-04-03T13:36:23;12.10;94.60
25550;DHT22;13444;50.562;7.262;2023-04-03T13:39:02;11.80;93.90
25550;DHT22;13444;50.562;7.262;2023-04-03T13:41:34;12.00;99.90
25550;DHT22;13444;50.562;7.262;2023-04-03T13:46:48;12.00;95.50
25550;DHT22;13444;50.562;7.262;2023-04-03T13:51:56;11.70;97.20
25550;DHT22;13444;50.562;7.262;2023-04-03T13:54:35;11.60;96.60
25550;DHT22;13444;50.562;7.262;2023-04-03T13:57:03;11.50;97.80
25550;DHT22;13444;50.562;7.262;2023-04-03T13:59:34;11.60;97.00
25550;DHT22;13444;50.562;7.262;2023-04-03T14:04:56;11.40;96.70
25550;DHT22;13444;50.562;7.262;2023-04-03T14:07:25;11.50;96.80
25550;DHT22;13444;50.562;7.262;2023-04-03T14:09:51;11.40;97.70
25550;DHT22;13444;50.562;7.262;2023-04-03T14:14:50;11.40;98.20
25550;DHT22;13444;50.562;7.262;2023-04-03T14:17:19;11.40;98.20
25550;DHT22;13444;50.562;7.262;2023-04-03T14:19:46;11.30;97.10
25550;DHT22;13444;50.562;7.262;2023-04-03T14:22:20;11.20;97.70
25550;DHT22;13444;50.562;7.262;2023-04-03T14:24:47;11.30;97.30
25550;DHT22;13444;50.562;7.262;2023-04-03T14:29:45;11.20;97.20
25550;DHT22;13444;50.562;7.262;2023-04-03T14:32:13;11.20;97.30
25550;DHT22;13444;50.562;7.262;2023-04-03T14:34:39;11.00;96.50
25550;DHT22;13444;50.562;7.262;2023-04-03T14:37:08;11.00;98.00
25550;DHT22;13444;50.562;7.262;2023-04-03T14:39:34;11.10;96.80
25550;DHT22;13444;50.562;7.262;2023-04-03T14:42:00;11.00;96.70
25550;DHT22;13444;50.562;7.262;2023-04-03T14:44:25;10.90;98.00
25550;DHT22;13444;50.562;7.262;2023-04-03T14:46:51;10.90;97.10
25550;DHT22;13444;50.562;7.262;2023-04-03T14:49:22;10.80;97.30
25550;DHT22;13444;50.562;7.262;2023-04-03T14:51:49;10.90;97.70
25550;DHT22;13444;50.562;7.262;2023-04-03T14:54:20;10.80;98.30
25550;DHT22;13444;50.562;7.262;2023-04-03T14:56:51;10.70;99.20
25550;DHT22;13444;50.562;7.262;2023-04-03T14:59:17;10.80;98.30
25550;DHT22;13444;50.562;7.262;2023-04-03T15:01:45;10.80;99.60
25550;DHT22;13444;50.562;7.262;2023-04-03T15:04:15;10.70;99.30
25550;DHT22;13444;50.562;7.262;2023-04-03T15:06:41;10.80;99.90
25550;DHT22;13444;50.562;7.262;2023-04-03T15:09:21;10.90;99.90
25550;DHT22;13444;50.562;7.262;2023-04-03T15:11:48;10.90;98.00
25550;DHT22;13444;50.562;7.262;2023-04-03T15:14:13;10.80;99.90
25550;DHT22;13444;50.562;7.262;2023-04-03T15:16:39;10.80;99.60
25550;DHT22;13444;50.562;7.262;2023-04-03T15:19:05;10.80;98.20
25550;DHT22;13444;50.562;7.262;2023-04-03T15:21:30;10.80;97.40
25550;DHT22;13444;50.562;7.262;2023-04-03T15:23:56;10.80;98.00
25550;DHT22;13444;50.562;7.262;2023-04-03T15:26:21;10.70;98.00
25550;DHT22;13444;50.562;7.262;2023-04-03T15:28:47;10.70;97.90
25550;DHT22;13444;50.562;7.262;2023-04-03T15:31:13;10.70;97.80
25550;DHT22;13444;50.562;7.262;2023-04-03T15:33:38;10.70;97.60
25550;DHT22;13444;50.562;7.262;2023-04-03T15:36:04;10.60;98.50
25550;DHT22;13444;50.562;7.262;2023-04-03T15:38:30;10.60;99.20
25550;DHT22;13444;50.562;7.262;2023-04-03T15:40:56;10.60;99.80
25550;DHT22;13444;50.562;7.262;2023-04-03T15:43:22;10.60;99.90
25550;DHT22;13444;50.562;7.262;2023-04-03T15:45:48;10.60;99.30
25550;DHT22;13444;50.562;7.262;2023-04-03T15:48:14;10.60;99.10
25550;DHT22;13444;50.562;7.262;2023-04-03T15:50:40;10.70;99.90
25550;DHT22;13444;50.562;7.262;2023-04-03T15:53:06;10.70;99.90
25550;DHT22;13444;50.562;7.262;2023-04-03T15:55:34;10.70;98.60
25550;DHT22;13444;50.562;7.262;2023-04-03T15:58:00;10.60;99.30
25550;DHT22;13444;50.562;7.262;2023-04-03T16:00:27;10.50;98.70
25550;DHT22;13444;50.562;7.262;2023-04-03T16:02:55;10.50;99.00
25550;DHT22;13444;50.562;7.262;2023-04-03T16:05:23;10.50;99.20
25550;DHT22;13444;50.562;7.262;2023-04-03T16:07:49;10.50;98.60
25550;DHT22;13444;50.562;7.262;2023-04-03T16:10:17;10.50;98.80
25550;DHT22;13444;50.562;7.262;2023-04-03T16:12:43;10.50;98.90
25550;DHT22;13444;50.562;7.262;2023-04-03T16:15:09;10.40;98.40
25550;DHT22;13444;50.562;7.262;2023-04-03T16:17:35;10.40;98.20
25550;DHT22;13444;50.562;7.262;2023-04-03T16:20:03;10.30;97.80
25550;DHT22;13444;50.562;7.262;2023-04-03T16:22:29;10.30;98.10
25550;DHT22;13444;50.562;7.262;2023-04-03T16:24:55;10.30;98.90
25550;DHT22;13444;50.562;7.262;2023-04-03T16:27:22;10.20;97.70
25550;DHT22;13444;50.562;7.262;2023-04-03T16:29:51;10.20;98.70
25550;DHT22;13444;50.562;7.262;2023-04-03T16:32:16;10.20;99.10
25550;DHT22;13444;50.562;7.262;2023-04-03T16:34:42;10.10;98.60
25550;DHT22;13444;50.562;7.262;2023-04-03T16:37:08;10.00;98.70
25550;DHT22;13444;50.562;7.262;2023-04-03T16:39:35;10.00;99.40
25550;DHT22;13444;50.562;7.262;2023-04-03T16:42:00;10.00;99.90
25550;DHT22;13444;50.562;7.262;2023-04-03T16:44:26;10.00;99.90
25550;DHT22;13444;50.562;7.262;2023-04-03T16:46:52;10.00;99.90
25550;DHT22;13444;50.562;7.262;2023-04-03T16:49:18;10.00;99.90
25550;DHT22;13444;50.562;7.262;2023-04-03T16:51:43;10.00;99.90
25550;DHT22;13444;50.562;7.262;2023-04-03T16:54:09;9.90;99.90
25550;DHT22;13444;50.562;7.262;2023-04-03T16:56:36;9.90;99.90
25550;DHT22;13444;50.562;7.262;2023-04-03T16:59:02;9.90;99.90
25550;DHT22;13444;50.562;7.262;2023-04-03T17:01:28;9.90;99.90
25550;DHT22;13444;50.562;7.262;2023-04-03T17:03:53;9.80;99.90
25550;DHT22;13444;50.562;7.262;2023-04-03T17:06:20;9.70;99.90
25550;DHT22;13444;50.562;7.262;2023-04-03T17:08:47;9.70;99.90
25550;DHT22;13444;50.562;7.262;2023-04-03T17:11:14;9.60;99.90
25550;DHT22;13444;50.562;7.262;2023-04-03T17:13:40;9.60;99.90
25550;DHT22;13444;50.562;7.262;2023-04-03T17:16:08;9.60;99.90
25550;DHT22;13444;50.562;7.262;2023-04-03T17:18:35;9.60;99.90
25550;DHT22;13444;50.562;7.262;2023-04-03T17:21:02;9.60;99.90
25550;DHT22;13444;50.562;7.262;2023-04-03T17:23:28;9.50;99.90
25550;DHT22;13444;50.562;7.262;2023-04-03T17:25:54;9.40;99.90
25550;DHT22;13444;50.562;7.262;2023-04-03T17:28:21;9.30;99.90
25550;DHT22;13444;50.562;7.262;2023-04-03T17:30:52;9.20;99.90
25550;DHT22;13444;50.562;7.262;2023-04-03T17:33:18;9.20;99.90
25550;DHT22;13444;50.562;7.262;2023-04-03T17:35:43;9.10;99.90
25550;DHT22;13444;50.562;7.262;2023-04-03T17:38:09;9.10;99.90
25550;DHT22;13444;50.562;7.262;2023-04-03T17:40:35;9.00;99.90
25550;DHT22;13444;50.562;7.262;2023-04-03T17:43:00;8.90;99.90
25550;DHT22;13444;50.562;7.262;2023-04-03T17:45:26;8.90;99.90
25550;DHT22;13444;50.562;7.262;2023-04-03T17:47:51;8.90;99.90
25550;DHT22;13444;50.562;7.262;2023-04-03T17:50:18;8.80;99.90